CSAV Rio Lontue — A8IY6 — position and weather

sailwx.info

Track history (hours):
 
Tides and Currents Weather Stations Pressure Air Temp Water Temp Dewpoint Dewpoint Depression Visibility Wind Speed Wind Dir Waves Ship Positions

CSAV Rio Lontue

Last reported at 2017-Nov-23 12:00 UTC. Time now 2017-Nov-23 20:45 UTC.
Position N 07°30' W 013°48'.

Length 207.6 m; beam 29.8 m; draft 11.4 m.

Type: Ship. MMSI: 636018193.

Wind from 180 at 10 knots

Barometer 1012.0 mb
Air temperature 30.0 ° C
Visibility: greater than 2.2 NM
Dewpoint 21.6 ° C
Water temperature 29.0 ° C

Date/timePositionNaut miles runAvg speedWind from/ knotsBaromVisibWave heightAir tempDewpointWater temp
2017-Nov-23 12:00N 07°30' W 013°48'17215.7 180 / 101012.0 2.2 30.021.629.0
2017-Nov-23 00:59N 09°21' W 016°01'815.8
2017-Nov-23 00:30N 09°26' W 016°07'815.8
2017-Nov-23 00:01N 09°31' W 016°13'815.1
2017-Nov-22 23:30N 09°36' W 016°19'914.9
2017-Nov-22 22:55N 09°42' W 016°26'615.1
2017-Nov-22 22:30N 09°46' W 016°30'815.1
2017-Nov-22 22:00N 09°51' W 016°36'715.1
2017-Nov-22 21:31N 09°56' W 016°41'814.8
2017-Nov-22 21:00N 10°01' W 016°47'715.2
2017-Nov-22 20:31N 10°06' W 016°52'815.4
2017-Nov-22 20:00N 10°12' W 016°58'1215.1
2017-Nov-22 19:14N 10°19' W 017°07'9913.6
2017-Nov-22 12:00N 11°54' W 017°36'72915.2 090 / 151018.0 2.2 24.021.129.0
2017-Nov-20 12:00N 24°00' W 016°30'66915.9 100 / 91016.0 5.4 23.021.620.0
2017-Nov-18 17:57N 33°07' W 009°12'24616.6
2017-Nov-18 03:07N 35°58' W 005°37'217.6
2017-Nov-18 03:00N 35°58' W 005°35'917.0
2017-Nov-18 02:30N 36°01' W 005°25'611.6
2017-Nov-18 02:00N 36°07' W 005°24'3 2.3
2017-Nov-18 00:47N 36°09' W 005°26'0 0.0
2017-Nov-17 21:51N 36°09' W 005°26'0 0.0
2017-Nov-17 21:24N 36°09' W 005°26'0 0.0
2017-Nov-17 20:57N 36°09' W 005°26'0 0.0
2017-Nov-17 20:17N 36°09' W 005°26'2 0.2
2017-Nov-17 07:58N 36°08' W 005°24'3 7.3
2017-Nov-17 07:30N 36°05' W 005°22'1 1.2
2017-Nov-17 07:00N 36°04' W 005°22'2 4.3
2017-Nov-17 06:30N 36°03' W 005°20'5 9.2
2017-Nov-17 06:00N 36°03' W 005°14'4 6.5
2017-Nov-17 05:25N 36°03' W 005°10'3 6.3
2017-Nov-17 05:00N 36°04' W 005°13'3 6.4
2017-Nov-17 04:30N 36°04' W 005°17'4 8.7
2017-Nov-17 04:00N 36°04' W 005°11'5 0.6
2017-Nov-16 19:24N 36°09' W 005°11'513.4
2017-Nov-16 19:01N 36°05' W 005°15'714.6
2017-Nov-16 18:30N 35°60' W 005°22'47 1.5
2017-Nov-15 12:00N 35°36' W 006°12'39316.4 260 / 41018.0 5.4 26.024.620.0
2017-Nov-14 12:00N 30°42' W 011°24'11515.4 040 / 221018.0 5.4 20.018.520.0
2017-Nov-14 04:30N 29°09' W 012°43'714.5
2017-Nov-14 04:00N 29°03' W 012°47'914.3
2017-Nov-14 03:24N 28°56' W 012°53'2914.1
2017-Nov-14 01:23N 28°32' W 013°11'1014.8
2017-Nov-14 00:44N 28°24' W 013°17'414.9
2017-Nov-14 00:29N 28°21' W 013°19'714.9
2017-Nov-13 23:59N 28°15' W 013°24'714.6
2017-Nov-13 23:30N 28°09' W 013°29'1614.6
2017-Nov-13 22:23N 27°55' W 013°39'714.7
2017-Nov-13 21:53N 27°49' W 013°43'15815.9
2017-Nov-13 12:00N 25°36' W 015°18'   070 / 141018.0 5.4 27.025.722.0
Track history (hours):
 
Tides and Currents Weather Stations Pressure Air Temp Water Temp Dewpoint Dewpoint Depression Visibility Wind Speed Wind Dir Waves Ship Positions

CSAV Rio Lontue

Last reported at 2017-Nov-23 12:00 UTC. Time now 2017-Nov-23 20:45 UTC.
Position N 07°30' W 013°48'.

Length 207.6 m; beam 29.8 m; draft 11.4 m.

Type: Ship. MMSI: 636018193.

Wind from 180 at 10 knots

Barometer 1012.0 mb
Air temperature 30.0 ° C
Visibility: greater than 2.2 NM
Dewpoint 21.6 ° C
Water temperature 29.0 ° C

Date/timePositionNaut miles runAvg speedWind from/ knotsBaromVisibWave heightAir tempDewpointWater temp
2017-Nov-23 12:00N 07°30' W 013°48'17215.7 180 / 101012.0 2.2 30.021.629.0
2017-Nov-23 00:59N 09°21' W 016°01'815.8
2017-Nov-23 00:30N 09°26' W 016°07'815.8
2017-Nov-23 00:01N 09°31' W 016°13'815.1
2017-Nov-22 23:30N 09°36' W 016°19'914.9
2017-Nov-22 22:55N 09°42' W 016°26'615.1
2017-Nov-22 22:30N 09°46' W 016°30'815.1
2017-Nov-22 22:00N 09°51' W 016°36'715.1
2017-Nov-22 21:31N 09°56' W 016°41'814.8
2017-Nov-22 21:00N 10°01' W 016°47'715.2
2017-Nov-22 20:31N 10°06' W 016°52'815.4
2017-Nov-22 20:00N 10°12' W 016°58'1215.1
2017-Nov-22 19:14N 10°19' W 017°07'9913.6
2017-Nov-22 12:00N 11°54' W 017°36'72915.2 090 / 151018.0 2.2 24.021.129.0
2017-Nov-20 12:00N 24°00' W 016°30'66915.9 100 / 91016.0 5.4 23.021.620.0
2017-Nov-18 17:57N 33°07' W 009°12'24616.6
2017-Nov-18 03:07N 35°58' W 005°37'217.6
2017-Nov-18 03:00N 35°58' W 005°35'917.0
2017-Nov-18 02:30N 36°01' W 005°25'611.6
2017-Nov-18 02:00N 36°07' W 005°24'3 2.3
2017-Nov-18 00:47N 36°09' W 005°26'0 0.0
2017-Nov-17 21:51N 36°09' W 005°26'0 0.0
2017-Nov-17 21:24N 36°09' W 005°26'0 0.0
2017-Nov-17 20:57N 36°09' W 005°26'0 0.0
2017-Nov-17 20:17N 36°09' W 005°26'2 0.2
2017-Nov-17 07:58N 36°08' W 005°24'3 7.3
2017-Nov-17 07:30N 36°05' W 005°22'1 1.2
2017-Nov-17 07:00N 36°04' W 005°22'2 4.3
2017-Nov-17 06:30N 36°03' W 005°20'5 9.2
2017-Nov-17 06:00N 36°03' W 005°14'4 6.5
2017-Nov-17 05:25N 36°03' W 005°10'3 6.3
2017-Nov-17 05:00N 36°04' W 005°13'3 6.4
2017-Nov-17 04:30N 36°04' W 005°17'4 8.7
2017-Nov-17 04:00N 36°04' W 005°11'5 0.6
2017-Nov-16 19:24N 36°09' W 005°11'513.4
2017-Nov-16 19:01N 36°05' W 005°15'714.6
2017-Nov-16 18:30N 35°60' W 005°22'47 1.5
2017-Nov-15 12:00N 35°36' W 006°12'39316.4 260 / 41018.0 5.4 26.024.620.0
2017-Nov-14 12:00N 30°42' W 011°24'11515.4 040 / 221018.0 5.4 20.018.520.0
2017-Nov-14 04:30N 29°09' W 012°43'714.5
2017-Nov-14 04:00N 29°03' W 012°47'914.3
2017-Nov-14 03:24N 28°56' W 012°53'2914.1
2017-Nov-14 01:23N 28°32' W 013°11'1014.8
2017-Nov-14 00:44N 28°24' W 013°17'414.9
2017-Nov-14 00:29N 28°21' W 013°19'714.9
2017-Nov-13 23:59N 28°15' W 013°24'714.6
2017-Nov-13 23:30N 28°09' W 013°29'1614.6
2017-Nov-13 22:23N 27°55' W 013°39'714.7
2017-Nov-13 21:53N 27°49' W 013°43'15815.9
2017-Nov-13 12:00N 25°36' W 015°18'   070 / 141018.0 5.4 27.025.722.0

Dump ship's entire track history